createdAt,value
2023-01-19T00:00:57.818Z,12.27
2023-01-19T00:03:25.064Z,20.17
2023-01-19T00:05:52.675Z,14.35
2023-01-19T00:08:19.919Z,20.83
2023-01-19T00:10:51.026Z,12.82
2023-01-19T00:13:18.233Z,20.65
2023-01-19T00:15:45.542Z,18.95
2023-01-19T00:18:12.643Z,21.13
2023-01-19T00:20:40.193Z,19.63
2023-01-19T00:23:08.193Z,16.70
2023-01-19T00:25:35.764Z,20.92
2023-01-19T00:28:03.082Z,19.92
2023-01-19T00:30:30.537Z,17.88
2023-01-19T00:32:58.496Z,19.53
2023-01-19T00:35:26.190Z,16.17
2023-01-19T00:37:53.419Z,20.38
2023-01-19T00:40:20.638Z,16.52
2023-01-19T00:42:48.620Z,18.20
2023-01-19T00:45:21.145Z,21.77
2023-01-19T00:47:50.160Z,18.92
2023-01-19T00:50:17.557Z,11.20
2023-01-19T00:52:45.210Z,17.05
2023-01-19T00:55:14.232Z,17.98
2023-01-19T00:57:41.896Z,11.70
2023-01-19T01:00:14.757Z,14.55
2023-01-19T01:02:43.598Z,14.98
2023-01-19T01:05:12.224Z,15.15
2023-01-19T01:07:44.517Z,18.27
2023-01-19T01:10:14.324Z,12.63
2023-01-19T01:12:42.300Z,13.35
2023-01-19T01:15:26.600Z,15.63
2023-01-19T01:17:54.099Z,12.50
2023-01-19T01:20:23.910Z,10.20
2023-01-19T01:22:52.670Z,5.63
2023-01-19T01:25:22.591Z,11.27
2023-01-19T01:27:50.311Z,7.10
2023-01-19T01:30:17.723Z,7.15
2023-01-19T01:32:44.913Z,6.75
2023-01-19T01:35:12.826Z,5.43
2023-01-19T01:37:40.398Z,7.50
2023-01-19T01:40:08.083Z,4.07
2023-01-19T01:42:35.427Z,3.13
2023-01-19T01:45:25.429Z,4.78
2023-01-19T01:47:54.077Z,3.97
2023-01-19T01:50:24.148Z,4.10
2023-01-19T01:53:06.884Z,4.07
2023-01-19T01:55:39.417Z,3.72
2023-01-19T01:58:06.862Z,4.32
2023-01-19T02:00:54.597Z,4.97
2023-01-19T02:03:23.576Z,5.22
2023-01-19T02:05:51.239Z,4.50
2023-01-19T02:08:47.107Z,4.20
2023-01-19T02:11:33.343Z,8.85
2023-01-19T02:14:00.700Z,9.07
2023-01-19T02:16:27.623Z,2.90
2023-01-19T02:18:54.932Z,6.43
2023-01-19T02:21:42.993Z,4.60
2023-01-19T02:24:10.933Z,3.78
2023-01-19T02:26:41.287Z,4.67
2023-01-19T02:29:11.732Z,7.03
2023-01-19T02:31:39.962Z,3.45
2023-01-19T02:34:10.656Z,3.00
2023-01-19T02:36:43.113Z,2.03
2023-01-19T02:39:11.194Z,3.13
2023-01-19T02:41:46.529Z,2.75
2023-01-19T02:44:15.211Z,2.63
2023-01-19T02:46:42.298Z,5.90
2023-01-19T02:49:09.075Z,5.45
2023-01-19T02:51:36.511Z,2.33
2023-01-19T02:54:03.992Z,3.63
2023-01-19T02:56:58.869Z,2.33
2023-01-19T02:59:37.781Z,2.90
2023-01-19T03:02:12.875Z,8.23
2023-01-19T03:04:54.851Z,2.53
2023-01-19T03:07:28.403Z,3.55
2023-01-19T03:10:07.043Z,2.08
2023-01-19T03:12:44.580Z,1.98
2023-01-19T03:15:25.321Z,1.95
2023-01-19T03:17:53.877Z,2.27
2023-01-19T03:20:25.469Z,3.78
2023-01-19T03:22:57.588Z,1.70
2023-01-19T03:25:26.193Z,1.95
2023-01-19T03:27:57.626Z,5.38
2023-01-19T03:30:32.174Z,2.67
2023-01-19T03:33:05.150Z,1.92
2023-01-19T03:35:34.892Z,4.07
2023-01-19T03:38:06.876Z,6.63
2023-01-19T03:40:35.337Z,4.15
2023-01-19T03:43:03.622Z,4.70
2023-01-19T03:45:33.417Z,5.15
2023-01-19T03:48:00.781Z,3.95
2023-01-19T03:50:30.403Z,2.20
2023-01-19T03:53:16.894Z,3.25
2023-01-19T03:55:47.563Z,4.47
2023-01-19T03:58:14.502Z,2.00
2023-01-19T04:00:41.701Z,4.40
2023-01-19T04:03:14.988Z,4.70
2023-01-19T04:05:42.367Z,2.97
2023-01-19T04:08:10.626Z,2.00
2023-01-19T04:10:38.311Z,5.57
2023-01-19T04:13:05.653Z,3.40
2023-01-19T04:15:33.223Z,2.45
2023-01-19T04:18:00.826Z,4.78
2023-01-19T04:20:28.981Z,1.97
2023-01-19T04:23:00.704Z,4.28
2023-01-19T04:25:28.569Z,3.50
2023-01-19T04:27:58.198Z,2.60
2023-01-19T04:30:25.767Z,2.47
2023-01-19T04:32:53.685Z,3.57
2023-01-19T04:35:22.259Z,5.85
2023-01-19T04:37:49.594Z,5.50
2023-01-19T04:40:16.922Z,3.97
2023-01-19T04:42:45.421Z,2.53
2023-01-19T04:45:13.609Z,4.70
2023-01-19T04:47:42.581Z,5.88
2023-01-19T04:50:10.675Z,7.53
2023-01-19T04:52:38.156Z,4.35
2023-01-19T04:55:06.316Z,6.80
2023-01-19T04:57:34.929Z,4.00
2023-01-19T05:00:02.970Z,2.72
2023-01-19T05:02:30.176Z,3.67
2023-01-19T05:04:57.574Z,2.70
2023-01-19T05:07:24.813Z,5.30
2023-01-19T05:09:52.219Z,4.07
2023-01-19T05:12:19.441Z,2.40
2023-01-19T05:14:46.244Z,3.15
2023-01-19T05:17:13.529Z,4.95
2023-01-19T05:19:40.915Z,5.88
2023-01-19T05:22:08.488Z,8.40
2023-01-19T05:24:35.692Z,6.28
2023-01-19T05:27:02.913Z,11.70
2023-01-19T05:29:30.305Z,10.38
2023-01-19T05:31:58.207Z,13.85
2023-01-19T05:34:25.727Z,3.77
2023-01-19T05:36:53.329Z,10.13
2023-01-19T05:39:20.213Z,7.60
2023-01-19T05:41:47.741Z,6.63
2023-01-19T05:44:14.951Z,10.10
2023-01-19T05:46:42.350Z,6.50
2023-01-19T05:49:09.961Z,11.13
2023-01-19T05:51:38.444Z,12.27
2023-01-19T05:54:06.558Z,7.20
2023-01-19T05:56:34.107Z,7.20
2023-01-19T05:59:01.598Z,8.13
2023-01-19T06:01:29.022Z,10.23
2023-01-19T06:03:56.421Z,7.97
2023-01-19T06:06:23.618Z,7.43
2023-01-19T06:08:50.896Z,13.18
2023-01-19T06:11:18.414Z,9.67
2023-01-19T06:13:46.780Z,12.35
2023-01-19T06:16:14.544Z,11.40
2023-01-19T06:18:41.791Z,7.32
2023-01-19T06:21:12.225Z,10.57
2023-01-19T06:23:39.582Z,11.10
2023-01-19T06:26:06.820Z,7.80
2023-01-19T06:28:34.370Z,9.25
2023-01-19T06:31:01.710Z,8.68
2023-01-19T06:33:29.264Z,22.77
2023-01-19T06:35:56.461Z,11.80
2023-01-19T06:38:23.347Z,11.65
2023-01-19T06:41:02.666Z,9.60
2023-01-19T06:43:29.912Z,11.75
2023-01-19T06:45:57.317Z,10.55
2023-01-19T06:48:24.730Z,20.93
2023-01-19T06:50:52.060Z,10.38
2023-01-19T06:53:20.849Z,11.25
2023-01-19T06:55:48.096Z,12.13
2023-01-19T06:58:15.428Z,14.75
2023-01-19T07:00:43.151Z,13.97
2023-01-19T07:03:10.660Z,15.55
2023-01-19T07:05:37.714Z,14.75
2023-01-19T07:08:05.332Z,14.50
2023-01-19T07:11:23.208Z,15.43
2023-01-19T07:13:21.658Z,14.50
2023-01-19T07:15:48.904Z,17.30
2023-01-19T07:18:16.120Z,21.50
2023-01-19T07:20:44.355Z,17.27
2023-01-19T07:23:11.682Z,12.45
2023-01-19T07:25:39.160Z,20.67
2023-01-19T07:28:06.439Z,52.85
2023-01-19T07:30:33.745Z,14.50
2023-01-19T07:33:02.614Z,12.27
2023-01-19T07:35:30.463Z,19.35
2023-01-19T07:37:57.865Z,14.77
2023-01-19T07:40:25.276Z,18.45
2023-01-19T07:42:52.573Z,12.63
2023-01-19T07:45:20.855Z,19.77
2023-01-19T07:47:50.093Z,18.58
2023-01-19T07:50:17.979Z,31.90
2023-01-19T07:52:45.592Z,12.38
2023-01-19T07:55:12.980Z,13.20
2023-01-19T07:57:40.223Z,23.40
2023-01-19T08:00:08.893Z,14.85
2023-01-19T08:02:42.520Z,12.33
2023-01-19T08:05:10.056Z,20.55
2023-01-19T08:07:37.239Z,17.27
2023-01-19T08:10:04.852Z,19.50
2023-01-19T08:12:32.226Z,16.63
2023-01-19T08:14:59.511Z,13.47
2023-01-19T08:17:26.932Z,18.30
2023-01-19T08:19:54.211Z,13.70
2023-01-19T08:22:21.495Z,9.27
2023-01-19T08:24:50.367Z,21.02
2023-01-19T08:27:17.815Z,12.80
2023-01-19T08:29:45.700Z,12.32
2023-01-19T08:32:13.060Z,15.68
2023-01-19T08:34:40.304Z,12.02
2023-01-19T08:37:07.272Z,17.42
2023-01-19T08:39:34.474Z,19.57
2023-01-19T08:42:01.852Z,18.45
2023-01-19T08:44:29.095Z,16.77
2023-01-19T08:46:56.350Z,9.50
2023-01-19T08:49:23.832Z,12.43
2023-01-19T08:51:51.066Z,14.57
2023-01-19T08:54:18.864Z,11.77
2023-01-19T08:56:46.159Z,12.40
2023-01-19T08:59:14.307Z,15.40
2023-01-19T09:01:41.405Z,18.75
2023-01-19T09:04:08.802Z,10.53
2023-01-19T09:06:36.771Z,10.15
2023-01-19T09:09:04.264Z,15.60
2023-01-19T09:11:31.648Z,12.15
2023-01-19T09:13:58.880Z,10.70
2023-01-19T09:16:27.239Z,10.20
2023-01-19T09:18:54.873Z,9.60
2023-01-19T09:21:22.216Z,13.88
2023-01-19T09:23:49.776Z,15.38
2023-01-19T09:26:17.375Z,12.63
2023-01-19T09:28:44.572Z,14.33
2023-01-19T09:31:12.171Z,19.10
2023-01-19T09:33:39.521Z,10.25
2023-01-19T09:36:07.100Z,15.32
2023-01-19T09:38:34.345Z,12.20
2023-01-19T09:41:01.775Z,14.37
2023-01-19T09:43:34.942Z,10.65
2023-01-19T09:46:03.903Z,11.52
2023-01-19T09:48:31.411Z,11.95
2023-01-19T09:51:02.642Z,9.15
2023-01-19T09:53:42.269Z,14.00
2023-01-19T09:56:17.985Z,8.20
2023-01-19T09:58:45.116Z,5.78
2023-01-19T10:01:23.950Z,9.82
2023-01-19T10:03:57.004Z,8.70
2023-01-19T10:06:24.436Z,6.87
2023-01-19T10:09:20.047Z,8.93
2023-01-19T10:11:54.403Z,10.13
2023-01-19T10:14:33.021Z,10.80
2023-01-19T10:17:15.004Z,9.00
2023-01-19T10:19:47.539Z,12.13
2023-01-19T10:22:23.117Z,7.40
2023-01-19T10:25:05.970Z,13.25
2023-01-19T10:27:34.690Z,14.20
2023-01-19T10:30:02.430Z,15.43
2023-01-19T10:32:35.956Z,8.47
2023-01-19T10:35:21.641Z,9.68
2023-01-19T10:37:49.335Z,7.72
2023-01-19T10:40:20.979Z,11.50
2023-01-19T10:42:47.781Z,12.43
2023-01-19T10:45:21.071Z,8.43
2023-01-19T10:47:49.149Z,13.00
2023-01-19T10:50:25.342Z,11.07
2023-01-19T10:52:55.329Z,16.75
2023-01-19T10:55:33.208Z,11.27
2023-01-19T10:58:00.907Z,8.50
2023-01-19T11:00:33.136Z,10.85
2023-01-19T11:03:00.731Z,7.05
2023-01-19T11:05:33.120Z,7.72
2023-01-19T11:08:00.760Z,10.60
2023-01-19T11:10:29.765Z,12.13
2023-01-19T11:13:03.975Z,9.25
2023-01-19T11:15:34.919Z,8.95
2023-01-19T11:18:05.897Z,10.82
2023-01-19T11:20:47.859Z,8.35
2023-01-19T11:23:14.672Z,9.13
2023-01-19T11:25:49.338Z,11.30
2023-01-19T11:28:44.966Z,11.40
2023-01-19T11:31:15.135Z,9.63
2023-01-19T11:33:50.686Z,13.43
2023-01-19T11:36:18.667Z,9.30
2023-01-19T11:38:46.605Z,7.65
2023-01-19T11:41:21.700Z,7.90
2023-01-19T11:44:18.856Z,7.75
2023-01-19T11:46:52.192Z,8.07
2023-01-19T11:49:27.394Z,6.70
2023-01-19T11:52:19.029Z,5.90
2023-01-19T11:54:54.770Z,9.27
2023-01-19T11:57:21.892Z,10.32
2023-01-19T11:59:51.970Z,7.50
2023-01-19T12:02:46.167Z,5.28
2023-01-19T12:05:19.193Z,6.30
2023-01-19T12:07:49.328Z,7.40
2023-01-19T12:10:26.880Z,5.28
2023-01-19T12:12:54.442Z,8.45
2023-01-19T12:15:25.859Z,7.35
2023-01-19T12:17:56.160Z,5.82
2023-01-19T12:20:37.264Z,5.90
2023-01-19T12:23:33.509Z,7.60
2023-01-19T12:26:18.837Z,5.90
2023-01-19T12:28:51.168Z,6.82
2023-01-19T12:31:21.627Z,5.85
2023-01-19T12:33:49.283Z,7.20
2023-01-19T12:36:35.548Z,7.05
2023-01-19T12:39:13.218Z,6.47
2023-01-19T12:41:41.321Z,5.88
2023-01-19T12:44:19.663Z,4.47
2023-01-19T12:46:54.534Z,5.82
2023-01-19T12:49:47.720Z,7.93
2023-01-19T12:52:31.428Z,5.32
2023-01-19T12:54:58.298Z,8.02
2023-01-19T12:57:52.077Z,6.65
2023-01-19T13:00:21.906Z,6.65
2023-01-19T13:02:56.103Z,8.35
2023-01-19T13:05:33.082Z,5.60
2023-01-19T13:08:03.308Z,10.18
2023-01-19T13:11:09.568Z,6.72
2023-01-19T13:13:48.470Z,6.50
2023-01-19T13:16:18.421Z,6.03
2023-01-19T13:18:49.058Z,6.97
2023-01-19T13:21:40.250Z,5.55
2023-01-19T13:24:14.876Z,5.60
2023-01-19T13:26:52.280Z,4.40
2023-01-19T13:29:34.500Z,8.10
2023-01-19T13:32:11.703Z,5.78
2023-01-19T13:34:57.610Z,3.90
2023-01-19T13:37:33.745Z,5.40
2023-01-19T13:40:01.679Z,7.47
2023-01-19T13:42:35.991Z,5.47
2023-01-19T13:45:17.915Z,6.03
2023-01-19T13:47:48.159Z,8.20
2023-01-19T13:50:30.076Z,4.80
2023-01-19T13:52:58.942Z,5.32
2023-01-19T13:55:28.472Z,6.18
2023-01-19T13:57:55.828Z,10.00
2023-01-19T14:00:31.027Z,5.27
2023-01-19T14:03:02.756Z,4.85
2023-01-19T14:05:37.615Z,7.68
2023-01-19T14:08:12.946Z,5.47
2023-01-19T14:10:45.914Z,5.32
2023-01-19T14:13:32.139Z,7.20
2023-01-19T14:16:07.311Z,7.30
2023-01-19T14:18:36.243Z,6.55
2023-01-19T14:21:03.645Z,6.82
2023-01-19T14:23:52.273Z,3.40
2023-01-19T14:26:37.868Z,7.13
2023-01-19T14:29:14.727Z,5.13
2023-01-19T14:31:47.811Z,7.18
2023-01-19T14:34:41.312Z,7.53
2023-01-19T14:37:26.631Z,7.88
2023-01-19T14:40:11.000Z,7.10
2023-01-19T14:42:52.728Z,7.25
2023-01-19T14:45:43.020Z,7.85
2023-01-19T14:48:18.140Z,5.07
2023-01-19T14:51:01.926Z,6.80
2023-01-19T14:53:34.507Z,9.47
2023-01-19T14:56:05.040Z,5.38
2023-01-19T14:58:34.023Z,5.47
2023-01-19T15:01:01.759Z,4.25
2023-01-19T15:03:47.745Z,9.20
2023-01-19T15:06:21.790Z,6.43
2023-01-19T15:08:50.482Z,3.50
2023-01-19T15:11:23.028Z,10.30
2023-01-19T15:13:50.835Z,8.38
2023-01-19T15:16:18.427Z,9.75
2023-01-19T15:18:45.915Z,11.10
2023-01-19T15:21:15.847Z,9.18
2023-01-19T15:23:42.860Z,7.47
2023-01-19T15:26:16.522Z,8.35
2023-01-19T15:28:43.887Z,5.65
2023-01-19T15:31:20.095Z,6.87
2023-01-19T15:33:47.674Z,11.90
2023-01-19T15:36:17.923Z,10.25
2023-01-19T15:38:45.893Z,9.25
2023-01-19T15:41:23.502Z,5.93
2023-01-19T15:43:51.017Z,7.27
2023-01-19T15:46:20.793Z,6.20
2023-01-19T15:48:48.491Z,5.45
2023-01-19T15:51:17.374Z,13.65
2023-01-19T15:53:44.864Z,15.90
2023-01-19T15:56:27.466Z,18.73
2023-01-19T15:58:54.983Z,21.80
2023-01-19T16:01:34.758Z,34.67
2023-01-19T16:04:03.716Z,8.25
2023-01-19T16:06:31.322Z,13.88
2023-01-19T16:09:01.877Z,14.57
2023-01-19T16:11:32.336Z,6.80
2023-01-19T16:14:00.040Z,10.63
2023-01-19T16:16:30.760Z,8.93
2023-01-19T16:18:58.549Z,9.88
2023-01-19T16:21:25.883Z,9.20
2023-01-19T16:23:53.180Z,10.27
2023-01-19T16:26:33.707Z,11.45
2023-01-19T16:29:02.825Z,11.00
2023-01-19T16:31:32.629Z,11.27
2023-01-19T16:33:59.973Z,10.87
2023-01-19T16:36:29.602Z,8.75
2023-01-19T16:39:01.818Z,12.77
2023-01-19T16:41:29.182Z,11.05
2023-01-19T16:43:57.807Z,12.50
2023-01-19T16:46:40.151Z,8.50
2023-01-19T16:49:15.066Z,11.55
2023-01-19T16:51:42.473Z,8.95
2023-01-19T16:54:18.223Z,23.75
2023-01-19T16:56:45.563Z,13.35
2023-01-19T16:59:14.765Z,10.83
2023-01-19T17:01:43.802Z,10.18
2023-01-19T17:04:14.458Z,9.73
2023-01-19T17:06:43.018Z,6.78
2023-01-19T17:09:10.671Z,10.43
2023-01-19T17:11:40.207Z,8.53
2023-01-19T17:14:16.753Z,7.88
2023-01-19T17:16:44.250Z,8.13
2023-01-19T17:19:15.390Z,10.40
2023-01-19T17:21:46.014Z,14.07
2023-01-19T17:24:13.489Z,13.40
2023-01-19T17:26:40.720Z,15.57
2023-01-19T17:29:10.108Z,12.95
2023-01-19T17:31:37.895Z,13.52
2023-01-19T17:34:05.436Z,14.25
2023-01-19T17:36:33.540Z,16.47
2023-01-19T17:39:06.224Z,14.73
2023-01-19T17:41:35.061Z,19.05
2023-01-19T17:44:03.988Z,16.67
2023-01-19T17:46:31.256Z,9.52
2023-01-19T17:49:00.604Z,29.03
2023-01-19T17:51:28.514Z,12.80
2023-01-19T17:53:55.790Z,15.27
2023-01-19T17:56:28.501Z,11.43
2023-01-19T17:58:56.849Z,11.30
2023-01-19T18:01:26.509Z,15.43
2023-01-19T18:03:53.932Z,20.48
2023-01-19T18:06:21.628Z,17.20
2023-01-19T18:08:49.264Z,25.17
2023-01-19T18:11:18.453Z,21.55
2023-01-19T18:13:46.556Z,15.47
2023-01-19T18:16:16.842Z,14.65
2023-01-19T18:18:44.292Z,23.40
2023-01-19T18:21:13.277Z,15.48
2023-01-19T18:23:40.686Z,11.73
2023-01-19T18:26:10.593Z,24.33
2023-01-19T18:28:37.972Z,22.00
2023-01-19T18:31:09.215Z,30.35
2023-01-19T18:33:36.478Z,21.05
2023-01-19T18:36:04.099Z,20.17
2023-01-19T18:38:31.355Z,14.07
2023-01-19T18:41:03.514Z,21.08
2023-01-19T18:43:31.093Z,22.33
2023-01-19T18:45:58.726Z,21.10
2023-01-19T18:48:26.157Z,28.48
2023-01-19T18:50:53.903Z,34.77
2023-01-19T18:53:21.481Z,33.97
2023-01-19T18:55:57.013Z,19.08
2023-01-19T18:58:25.247Z,30.27
2023-01-19T19:00:52.555Z,30.85
2023-01-19T19:03:19.823Z,42.63
2023-01-19T19:05:47.103Z,49.42
2023-01-19T19:08:14.378Z,40.78
2023-01-19T19:10:42.708Z,46.97
2023-01-19T19:13:12.781Z,16.25
2023-01-19T19:15:40.074Z,16.90
2023-01-19T19:18:08.960Z,15.10
2023-01-19T19:20:39.445Z,9.80
2023-01-19T19:23:06.768Z,10.45
2023-01-19T19:25:34.121Z,6.90
2023-01-19T19:28:01.560Z,6.70
2023-01-19T19:30:28.938Z,10.15
2023-01-19T19:32:56.720Z,5.32
2023-01-19T19:35:24.696Z,5.53
2023-01-19T19:37:57.406Z,13.18
2023-01-19T19:40:28.493Z,6.47
2023-01-19T19:42:58.604Z,10.18
2023-01-19T19:45:26.218Z,7.80
2023-01-19T19:47:53.512Z,9.02
2023-01-19T19:50:20.735Z,9.93
2023-01-19T19:52:48.010Z,10.10
2023-01-19T19:55:15.331Z,10.68
2023-01-19T19:57:42.621Z,7.95
2023-01-19T20:00:10.180Z,6.93
2023-01-19T20:02:37.683Z,7.03
2023-01-19T20:05:05.589Z,5.20
2023-01-19T20:07:33.284Z,6.97
2023-01-19T20:10:00.619Z,7.38
2023-01-19T20:12:27.975Z,10.52
2023-01-19T20:14:55.338Z,8.77
2023-01-19T20:17:23.264Z,5.50
2023-01-19T20:19:50.547Z,8.52
2023-01-19T20:22:17.979Z,12.55
2023-01-19T20:24:45.576Z,9.05
2023-01-19T20:27:12.848Z,4.13
2023-01-19T20:29:40.162Z,9.47
2023-01-19T20:32:22.059Z,6.13
2023-01-19T20:34:49.336Z,7.25
2023-01-19T20:37:16.594Z,8.55
2023-01-19T20:39:45.348Z,7.25
2023-01-19T20:42:13.626Z,9.97
2023-01-19T20:44:41.017Z,7.70
2023-01-19T20:47:09.333Z,12.40
2023-01-19T20:49:36.897Z,19.77
2023-01-19T20:52:04.412Z,44.22
2023-01-19T20:54:31.723Z,28.93
2023-01-19T20:56:59.943Z,46.05
2023-01-19T20:59:27.900Z,15.52
2023-01-19T21:01:55.524Z,14.13
2023-01-19T21:04:22.621Z,17.05
2023-01-19T21:06:49.927Z,29.13
2023-01-19T21:09:18.613Z,12.75
2023-01-19T21:11:45.913Z,11.90
2023-01-19T21:14:12.833Z,7.90
2023-01-19T21:16:40.160Z,10.18
2023-01-19T21:19:07.615Z,12.80
2023-01-19T21:21:35.086Z,9.38
2023-01-19T21:24:02.768Z,7.63
2023-01-19T21:26:30.175Z,7.28
2023-01-19T21:28:58.250Z,8.80
2023-01-19T21:31:27.567Z,10.97
2023-01-19T21:33:55.718Z,9.55
2023-01-19T21:36:23.029Z,12.30
2023-01-19T21:38:55.525Z,10.77
2023-01-19T21:41:22.975Z,9.63
2023-01-19T21:43:50.319Z,7.10
2023-01-19T21:46:32.225Z,11.10
2023-01-19T21:49:04.674Z,9.45
2023-01-19T21:51:35.007Z,9.57
2023-01-19T21:54:03.452Z,7.63
2023-01-19T21:56:31.126Z,11.17
2023-01-19T21:58:59.604Z,8.43
2023-01-19T22:01:26.954Z,8.52
2023-01-19T22:03:55.483Z,10.30
2023-01-19T22:06:23.199Z,9.18
2023-01-19T22:08:50.463Z,8.50
2023-01-19T22:11:19.513Z,10.15
2023-01-19T22:13:47.031Z,11.52
2023-01-19T22:16:17.142Z,13.10
2023-01-19T22:18:48.926Z,11.38
2023-01-19T22:21:18.509Z,10.77
2023-01-19T22:23:52.292Z,11.52
2023-01-19T22:26:19.735Z,9.60
2023-01-19T22:28:47.223Z,11.38
2023-01-19T22:31:17.614Z,9.55
2023-01-19T22:33:45.125Z,11.10
2023-01-19T22:36:26.272Z,9.93
2023-01-19T22:38:57.148Z,13.93
2023-01-19T22:41:29.957Z,11.15
2023-01-19T22:43:58.963Z,11.95
2023-01-19T22:46:28.611Z,9.70
2023-01-19T22:48:56.613Z,8.93
2023-01-19T22:51:24.377Z,5.82
2023-01-19T22:53:52.066Z,8.38
2023-01-19T22:56:21.319Z,6.30
2023-01-19T22:58:48.470Z,9.60
2023-01-19T23:01:35.660Z,6.63
2023-01-19T23:04:04.502Z,9.52
2023-01-19T23:06:34.018Z,7.55
2023-01-19T23:09:04.877Z,8.82
2023-01-19T23:11:37.781Z,10.40
2023-01-19T23:14:07.297Z,7.90
2023-01-19T23:16:34.905Z,10.65
2023-01-19T23:19:02.142Z,10.45
2023-01-19T23:21:30.663Z,11.38
2023-01-19T23:24:00.458Z,11.43
2023-01-19T23:26:28.735Z,8.35
2023-01-19T23:28:58.367Z,10.32
2023-01-19T23:31:25.560Z,9.40
2023-01-19T23:33:57.947Z,9.90
2023-01-19T23:36:27.073Z,13.70
2023-01-19T23:38:59.843Z,13.07
2023-01-19T23:41:30.415Z,13.05
2023-01-19T23:43:57.641Z,18.13
2023-01-19T23:46:25.046Z,14.85
2023-01-19T23:48:52.404Z,14.37
2023-01-19T23:51:24.956Z,13.55
2023-01-19T23:53:52.362Z,15.25
2023-01-19T23:56:19.615Z,12.43
2023-01-19T23:58:48.537Z,9.40
